createdAt,value
2023-01-26T00:01:44.870Z,19.23
2023-01-26T00:04:12.854Z,15.57
2023-01-26T00:06:40.202Z,23.17
2023-01-26T00:09:12.347Z,20.80
2023-01-26T00:11:39.674Z,24.33
2023-01-26T00:14:07.223Z,21.47
2023-01-26T00:16:34.536Z,19.20
2023-01-26T00:19:02.693Z,18.37
2023-01-26T00:21:31.059Z,21.17
2023-01-26T00:23:59.813Z,19.60
2023-01-26T00:26:27.939Z,21.07
2023-01-26T00:28:55.423Z,22.20
2023-01-26T00:31:26.323Z,21.80
2023-01-26T00:33:55.245Z,24.63
2023-01-26T00:36:23.109Z,25.83
2023-01-26T00:38:50.483Z,30.00
2023-01-26T00:41:36.868Z,22.93
2023-01-26T00:44:04.547Z,28.83
2023-01-26T00:46:32.292Z,24.00
2023-01-26T00:49:01.179Z,26.00
2023-01-26T00:51:28.861Z,25.97
2023-01-26T00:53:57.134Z,32.73
2023-01-26T00:56:28.042Z,26.23
2023-01-26T00:58:55.557Z,27.37
2023-01-26T01:01:22.913Z,24.73
2023-01-26T01:03:52.178Z,34.50
2023-01-26T01:06:19.567Z,29.20
2023-01-26T01:08:47.295Z,33.87
2023-01-26T01:11:14.752Z,27.47
2023-01-26T01:13:42.363Z,30.27
2023-01-26T01:16:12.578Z,26.83
2023-01-26T01:18:40.217Z,30.17
2023-01-26T01:21:12.191Z,29.07
2023-01-26T01:26:07.420Z,24.07
2023-01-26T01:28:35.816Z,31.30
2023-01-26T01:31:08.627Z,31.20
2023-01-26T01:33:36.610Z,37.43
2023-01-26T01:36:10.501Z,32.37
2023-01-26T01:38:38.168Z,35.70
2023-01-26T01:41:06.578Z,34.57
2023-01-26T01:43:34.280Z,29.10
2023-01-26T01:46:08.074Z,32.00
2023-01-26T01:49:07.567Z,30.43
2023-01-26T01:51:45.258Z,29.87
2023-01-26T01:54:16.976Z,27.57
2023-01-26T01:56:50.346Z,37.90
2023-01-26T01:59:22.518Z,36.57
2023-01-26T02:04:19.765Z,35.37
2023-01-26T02:06:57.599Z,27.27
2023-01-26T02:09:54.635Z,38.27
2023-01-26T02:12:27.351Z,27.27
2023-01-26T02:14:55.443Z,34.25
2023-01-26T02:17:23.129Z,28.53
2023-01-26T02:20:22.474Z,39.23
2023-01-26T02:23:36.174Z,25.90
2023-01-26T02:26:18.448Z,29.20
2023-01-26T02:31:14.439Z,24.20
2023-01-26T02:33:43.156Z,34.97
2023-01-26T02:36:29.493Z,26.67
2023-01-26T02:39:30.181Z,27.13
2023-01-26T02:42:16.200Z,34.80
2023-01-26T02:44:44.844Z,32.10
2023-01-26T02:47:17.380Z,28.37
2023-01-26T02:49:50.926Z,27.50
2023-01-26T02:52:26.030Z,25.90
2023-01-26T02:55:19.337Z,25.97
2023-01-26T02:57:47.345Z,28.10
2023-01-26T03:00:40.885Z,29.87
2023-01-26T03:03:17.210Z,27.90
2023-01-26T03:05:45.124Z,24.20
2023-01-26T03:08:12.834Z,30.03
2023-01-26T03:10:40.758Z,23.57
2023-01-26T03:13:08.825Z,23.80
2023-01-26T03:15:43.390Z,26.03
2023-01-26T03:18:33.665Z,31.60
2023-01-26T03:21:34.083Z,25.03
2023-01-26T03:24:21.039Z,19.73
2023-01-26T03:27:07.801Z,25.77
2023-01-26T03:29:35.286Z,26.10
2023-01-26T03:32:03.672Z,28.53
2023-01-26T03:34:31.720Z,23.57
2023-01-26T03:36:59.421Z,26.73
2023-01-26T03:39:51.269Z,30.97
2023-01-26T03:42:37.572Z,29.40
2023-01-26T03:45:24.517Z,32.63
2023-01-26T03:48:10.850Z,24.73
2023-01-26T03:50:56.779Z,32.17
2023-01-26T03:53:43.232Z,28.47
2023-01-26T03:56:18.530Z,27.13
2023-01-26T03:58:50.389Z,22.70
2023-01-26T04:01:26.246Z,21.75
2023-01-26T04:04:15.988Z,22.10
2023-01-26T04:07:06.316Z,27.70
2023-01-26T04:09:36.750Z,26.90
2023-01-26T04:12:04.587Z,23.30
2023-01-26T04:14:51.768Z,23.47
2023-01-26T04:17:42.507Z,24.73
2023-01-26T04:20:29.482Z,21.37
2023-01-26T04:22:57.021Z,23.70
2023-01-26T04:25:24.421Z,25.33
2023-01-26T04:27:52.284Z,16.33
2023-01-26T04:30:20.324Z,23.07
2023-01-26T04:32:48.574Z,21.70
2023-01-26T04:35:17.818Z,22.23
2023-01-26T04:37:45.393Z,21.80
2023-01-26T04:40:13.309Z,23.60
2023-01-26T04:42:41.413Z,26.17
2023-01-26T04:45:10.893Z,21.20
2023-01-26T04:47:38.986Z,26.20
2023-01-26T04:50:07.183Z,24.83
2023-01-26T04:52:34.925Z,26.03
2023-01-26T04:55:02.217Z,26.67
2023-01-26T04:57:32.089Z,24.73
2023-01-26T05:00:01.587Z,25.63
2023-01-26T05:02:29.364Z,19.03
2023-01-26T05:04:56.983Z,20.80
2023-01-26T05:07:25.222Z,24.43
2023-01-26T05:09:53.401Z,23.33
2023-01-26T05:12:43.948Z,23.40
2023-01-26T05:15:29.030Z,22.27
2023-01-26T05:18:01.261Z,33.25
2023-01-26T05:20:49.974Z,23.60
2023-01-26T05:23:19.870Z,21.47
2023-01-26T05:26:05.495Z,24.30
2023-01-26T05:28:43.836Z,21.93
2023-01-26T05:31:11.251Z,27.23
2023-01-26T05:33:38.685Z,23.90
2023-01-26T05:36:08.368Z,28.60
2023-01-26T05:38:36.059Z,26.33
2023-01-26T05:41:03.614Z,27.03
2023-01-26T05:43:37.879Z,32.07
2023-01-26T05:46:10.482Z,28.93
2023-01-26T05:48:41.825Z,24.17
2023-01-26T05:51:09.127Z,24.07
2023-01-26T05:53:37.444Z,21.37
2023-01-26T05:56:05.201Z,20.57
2023-01-26T05:58:34.809Z,21.90
2023-01-26T06:01:04.886Z,14.10
2023-01-26T06:03:40.494Z,17.90
2023-01-26T06:06:07.944Z,18.90
2023-01-26T06:08:48.323Z,19.77
2023-01-26T06:11:35.865Z,16.70
2023-01-26T06:14:16.732Z,20.90
2023-01-26T06:16:44.397Z,24.27
2023-01-26T06:19:12.153Z,17.90
2023-01-26T06:21:40.640Z,20.33
2023-01-26T06:24:08.153Z,18.83
2023-01-26T06:26:35.820Z,17.40
2023-01-26T06:29:03.380Z,17.30
2023-01-26T06:31:37.108Z,23.00
2023-01-26T06:34:05.745Z,19.33
2023-01-26T06:36:38.094Z,17.53
2023-01-26T06:39:07.618Z,16.80
2023-01-26T06:41:35.885Z,20.53
2023-01-26T06:44:03.198Z,16.60
2023-01-26T06:46:30.488Z,18.97
2023-01-26T06:48:58.541Z,18.90
2023-01-26T06:52:05.140Z,23.07
2023-01-26T06:54:43.966Z,17.17
2023-01-26T06:57:21.556Z,18.27
2023-01-26T07:00:07.973Z,16.40
2023-01-26T07:02:53.496Z,17.17
2023-01-26T07:05:21.014Z,19.33
2023-01-26T07:07:48.362Z,19.33
2023-01-26T07:10:15.896Z,19.53
2023-01-26T07:12:45.506Z,17.43
2023-01-26T07:15:13.544Z,18.87
2023-01-26T07:17:40.912Z,23.00
2023-01-26T07:20:09.341Z,21.57
2023-01-26T07:22:36.837Z,19.00
2023-01-26T07:25:04.363Z,15.13
2023-01-26T07:27:31.650Z,18.87
2023-01-26T07:29:59.031Z,18.77
2023-01-26T07:32:26.344Z,24.63
2023-01-26T07:34:53.709Z,19.20
2023-01-26T07:37:20.970Z,23.70
2023-01-26T07:39:49.183Z,19.07
2023-01-26T07:42:16.502Z,20.90
2023-01-26T07:45:00.745Z,18.63
2023-01-26T07:47:28.096Z,21.50
2023-01-26T07:49:55.423Z,20.23
2023-01-26T07:52:22.742Z,24.07
2023-01-26T07:54:50.643Z,19.53
2023-01-26T07:57:18.022Z,25.00
2023-01-26T07:59:45.337Z,22.30
2023-01-26T08:02:12.674Z,20.43
2023-01-26T08:04:40.207Z,16.00
2023-01-26T08:07:07.937Z,21.50
2023-01-26T08:09:36.089Z,22.80
2023-01-26T08:12:03.691Z,22.27
2023-01-26T08:14:45.091Z,21.10
2023-01-26T08:17:13.304Z,23.50
2023-01-26T08:19:40.665Z,21.90
2023-01-26T08:22:07.970Z,22.17
2023-01-26T08:24:35.302Z,26.43
2023-01-26T08:27:02.664Z,27.63
2023-01-26T08:29:29.968Z,27.40
2023-01-26T08:31:57.285Z,21.63
2023-01-26T08:34:26.595Z,22.17
2023-01-26T08:36:53.936Z,21.93
2023-01-26T08:39:21.271Z,24.40
2023-01-26T08:41:48.586Z,27.80
2023-01-26T08:44:15.924Z,26.13
2023-01-26T08:46:46.137Z,21.70
2023-01-26T08:49:15.332Z,21.57
2023-01-26T08:51:42.792Z,25.07
2023-01-26T08:54:10.096Z,20.40
2023-01-26T08:56:37.481Z,23.57
2023-01-26T08:59:04.828Z,25.10
2023-01-26T09:01:32.280Z,20.80
2023-01-26T09:04:00.448Z,19.10
2023-01-26T09:06:28.600Z,21.77
2023-01-26T09:08:57.626Z,29.23
2023-01-26T09:11:25.265Z,23.37
2023-01-26T09:13:56.500Z,24.40
2023-01-26T09:16:24.640Z,19.00
2023-01-26T09:18:54.960Z,26.70
2023-01-26T09:21:24.165Z,21.07
2023-01-26T09:23:51.507Z,26.47
2023-01-26T09:26:19.021Z,21.47
2023-01-26T09:28:50.612Z,24.70
2023-01-26T09:31:18.087Z,23.25
2023-01-26T09:33:45.596Z,23.53
2023-01-26T09:36:13.003Z,21.87
2023-01-26T09:38:40.365Z,24.53
2023-01-26T09:41:23.113Z,27.53
2023-01-26T09:44:17.019Z,21.00
2023-01-26T09:47:08.639Z,26.03
2023-01-26T09:49:57.546Z,23.43
2023-01-26T09:53:04.000Z,22.43
2023-01-26T09:55:31.871Z,17.40
2023-01-26T09:58:12.961Z,26.40
2023-01-26T10:00:47.315Z,27.40
2023-01-26T10:03:22.818Z,23.00
2023-01-26T10:06:03.754Z,24.40
2023-01-26T10:08:50.081Z,21.10
2023-01-26T10:11:38.232Z,24.67
2023-01-26T10:14:14.339Z,20.93
2023-01-26T10:16:45.522Z,26.67
2023-01-26T10:19:42.946Z,20.08
2023-01-26T10:22:36.924Z,23.23
2023-01-26T10:25:15.687Z,21.90
2023-01-26T10:27:45.951Z,21.63
2023-01-26T10:30:18.236Z,25.70
2023-01-26T10:32:50.703Z,19.57
2023-01-26T10:35:21.455Z,26.37
2023-01-26T10:37:49.588Z,21.40
2023-01-26T10:40:17.581Z,19.03
2023-01-26T10:42:58.788Z,25.57
2023-01-26T10:45:32.198Z,22.40
2023-01-26T10:48:27.291Z,23.30
2023-01-26T10:50:55.104Z,21.07
2023-01-26T10:53:29.973Z,18.17
2023-01-26T10:56:17.222Z,18.87
2023-01-26T10:58:49.569Z,23.20
2023-01-26T11:01:23.037Z,20.40
2023-01-26T11:04:06.447Z,21.30
2023-01-26T11:06:35.483Z,20.17
2023-01-26T11:09:29.467Z,21.77
2023-01-26T11:12:02.380Z,20.30
2023-01-26T11:14:31.052Z,17.50
2023-01-26T11:17:25.272Z,19.90
2023-01-26T11:19:58.587Z,16.90
2023-01-26T11:22:40.416Z,15.73
2023-01-26T11:25:35.661Z,16.45
2023-01-26T11:28:59.760Z,18.97
2023-01-26T11:31:38.483Z,16.67
2023-01-26T11:34:32.322Z,14.77
2023-01-26T11:37:29.443Z,22.17
2023-01-26T11:40:14.591Z,16.50
2023-01-26T11:42:58.245Z,19.80
2023-01-26T11:45:52.306Z,20.13
2023-01-26T11:48:28.933Z,16.07
2023-01-26T11:50:58.964Z,15.80
2023-01-26T11:53:45.018Z,17.50
2023-01-26T11:56:53.405Z,16.80
2023-01-26T11:59:41.625Z,15.03
2023-01-26T12:02:31.652Z,14.87
2023-01-26T12:05:03.204Z,17.57
2023-01-26T12:08:16.400Z,18.05
2023-01-26T12:11:23.318Z,25.10
2023-01-26T12:14:21.249Z,18.00
2023-01-26T12:17:30.680Z,16.87
2023-01-26T12:20:38.457Z,21.87
2023-01-26T12:23:08.526Z,16.57
2023-01-26T12:25:50.837Z,14.63
2023-01-26T12:28:40.419Z,18.40
2023-01-26T12:31:24.189Z,15.20
2023-01-26T12:33:54.709Z,16.27
2023-01-26T12:37:04.482Z,18.87
2023-01-26T12:39:45.626Z,15.37
2023-01-26T12:42:41.944Z,12.50
2023-01-26T12:45:18.729Z,12.53
2023-01-26T12:47:53.518Z,13.97
2023-01-26T12:50:30.299Z,10.00
2023-01-26T12:53:08.294Z,18.17
2023-01-26T12:56:10.073Z,15.07
2023-01-26T12:58:42.236Z,14.60
2023-01-26T13:01:16.707Z,12.13
2023-01-26T13:03:51.299Z,11.73
2023-01-26T13:06:22.345Z,14.83
2023-01-26T13:08:53.737Z,12.77
2023-01-26T13:11:40.207Z,11.40
2023-01-26T13:14:28.431Z,14.40
2023-01-26T13:16:56.791Z,13.07
2023-01-26T13:19:36.512Z,15.43
2023-01-26T13:22:04.197Z,9.43
2023-01-26T13:24:58.429Z,11.57
2023-01-26T13:28:00.095Z,8.97
2023-01-26T13:30:34.747Z,10.25
2023-01-26T13:33:22.960Z,12.23
2023-01-26T13:35:53.558Z,10.37
2023-01-26T13:38:39.105Z,12.60
2023-01-26T13:41:20.934Z,16.33
2023-01-26T13:44:13.732Z,10.65
2023-01-26T13:46:56.409Z,13.97
2023-01-26T13:49:37.490Z,12.00
2023-01-26T13:52:22.622Z,10.10
2023-01-26T13:54:52.711Z,9.93
2023-01-26T13:57:26.370Z,15.00
2023-01-26T14:00:01.910Z,12.20
2023-01-26T14:02:36.139Z,8.07
2023-01-26T14:05:03.615Z,9.37
2023-01-26T14:07:44.735Z,11.10
2023-01-26T14:10:22.396Z,9.47
2023-01-26T14:12:52.501Z,9.07
2023-01-26T14:15:28.994Z,10.53
2023-01-26T14:18:02.030Z,8.60
2023-01-26T14:20:40.342Z,10.60
2023-01-26T14:23:19.083Z,14.17
2023-01-26T14:25:58.684Z,10.00
2023-01-26T14:28:37.774Z,9.83
2023-01-26T14:31:24.932Z,9.57
2023-01-26T14:33:57.714Z,10.63
2023-01-26T14:36:28.002Z,10.73
2023-01-26T14:38:56.887Z,10.83
2023-01-26T14:41:33.810Z,9.30
2023-01-26T14:44:06.044Z,8.07
2023-01-26T14:47:11.028Z,9.73
2023-01-26T14:49:56.319Z,11.63
2023-01-26T14:52:33.985Z,9.47
2023-01-26T14:55:28.184Z,12.13
2023-01-26T14:57:56.912Z,9.70
2023-01-26T15:00:30.925Z,9.73
2023-01-26T15:03:01.804Z,8.33
2023-01-26T15:05:35.935Z,9.80
2023-01-26T15:08:23.727Z,8.90
2023-01-26T15:11:20.588Z,9.23
2023-01-26T15:13:52.788Z,10.87
2023-01-26T15:16:25.008Z,9.40
2023-01-26T15:19:00.648Z,12.00
2023-01-26T15:21:43.470Z,7.87
2023-01-26T15:24:14.787Z,8.03
2023-01-26T15:26:42.930Z,11.88
2023-01-26T15:29:30.753Z,10.97
2023-01-26T15:31:58.834Z,11.83
2023-01-26T15:34:45.964Z,12.13
2023-01-26T15:37:33.605Z,10.70
2023-01-26T15:40:01.042Z,12.23
2023-01-26T15:42:32.926Z,11.60
2023-01-26T15:45:00.259Z,13.52
2023-01-26T15:47:27.573Z,11.47
2023-01-26T15:49:54.902Z,8.67
2023-01-26T15:52:25.736Z,11.37
2023-01-26T15:54:53.970Z,14.73
2023-01-26T15:57:21.434Z,7.93
2023-01-26T15:59:48.758Z,10.50
2023-01-26T16:02:18.234Z,11.53
2023-01-26T16:04:45.966Z,14.80
2023-01-26T16:07:15.723Z,11.30
2023-01-26T16:09:43.664Z,11.80
2023-01-26T16:12:31.071Z,8.07
2023-01-26T16:14:59.778Z,10.57
2023-01-26T16:17:27.180Z,9.17
2023-01-26T16:19:54.514Z,10.23
2023-01-26T16:22:21.865Z,10.80
2023-01-26T16:24:49.155Z,11.43
2023-01-26T16:27:16.452Z,15.87
2023-01-26T16:29:43.761Z,9.50
2023-01-26T16:32:28.577Z,12.17
2023-01-26T16:34:55.927Z,13.57
2023-01-26T16:37:23.155Z,9.57
2023-01-26T16:39:50.461Z,12.10
2023-01-26T16:42:20.145Z,9.57
2023-01-26T16:44:47.786Z,10.63
2023-01-26T16:47:15.132Z,11.37
2023-01-26T16:49:42.432Z,9.67
2023-01-26T16:52:10.183Z,8.63
2023-01-26T16:54:37.592Z,11.67
2023-01-26T16:57:05.394Z,8.63
2023-01-26T16:59:32.730Z,10.33
2023-01-26T17:02:00.372Z,11.53
2023-01-26T17:04:27.765Z,8.27
2023-01-26T17:06:55.053Z,9.83
2023-01-26T17:09:23.866Z,10.43
2023-01-26T17:11:51.164Z,13.97
2023-01-26T17:14:18.518Z,11.50
2023-01-26T17:16:45.926Z,10.77
2023-01-26T17:19:13.306Z,10.73
2023-01-26T17:21:40.814Z,7.67
2023-01-26T17:24:08.381Z,9.60
2023-01-26T17:26:36.088Z,11.07
2023-01-26T17:29:03.406Z,10.70
2023-01-26T17:31:31.672Z,7.10
2023-01-26T17:33:59.058Z,8.80
2023-01-26T17:36:26.384Z,7.53
2023-01-26T17:38:53.822Z,9.80
2023-01-26T17:41:21.210Z,8.47
2023-01-26T17:43:48.615Z,7.80
2023-01-26T17:46:17.804Z,9.37
2023-01-26T17:48:45.873Z,11.83
2023-01-26T17:51:16.797Z,8.10
2023-01-26T17:53:45.315Z,8.80
2023-01-26T17:56:15.245Z,8.40
2023-01-26T17:58:42.543Z,7.40
2023-01-26T18:01:10.662Z,9.90
2023-01-26T18:03:41.738Z,10.80
2023-01-26T18:06:09.551Z,9.67
2023-01-26T18:08:37.576Z,11.93
2023-01-26T18:11:06.934Z,10.03
2023-01-26T18:13:34.755Z,11.27
2023-01-26T18:16:02.256Z,9.63
2023-01-26T18:18:30.078Z,12.03
2023-01-26T18:20:57.744Z,11.83
2023-01-26T18:23:25.303Z,13.10
2023-01-26T18:25:52.766Z,11.30
2023-01-26T18:28:20.040Z,13.77
2023-01-26T18:30:48.518Z,14.43
2023-01-26T18:33:15.825Z,12.23
2023-01-26T18:35:43.111Z,12.93
2023-01-26T18:38:10.371Z,14.90
2023-01-26T18:40:40.060Z,14.77
2023-01-26T18:43:08.644Z,14.43
2023-01-26T18:45:36.065Z,8.90
2023-01-26T18:48:03.508Z,10.80
2023-01-26T18:50:30.832Z,12.83
2023-01-26T18:52:58.138Z,12.67
2023-01-26T18:55:26.221Z,12.83
2023-01-26T18:57:55.144Z,13.27
2023-01-26T19:00:22.714Z,12.37
2023-01-26T19:02:49.973Z,10.97
2023-01-26T19:05:17.596Z,11.90
2023-01-26T19:07:44.868Z,13.27
2023-01-26T19:10:12.434Z,13.50
2023-01-26T19:12:39.681Z,13.87
2023-01-26T19:15:08.276Z,14.77
2023-01-26T19:17:35.552Z,8.50
2023-01-26T19:20:03.704Z,12.13
2023-01-26T19:22:31.358Z,12.90
2023-01-26T19:24:58.639Z,12.30
2023-01-26T19:27:26.164Z,11.23
2023-01-26T19:29:54.383Z,11.63
2023-01-26T19:32:21.672Z,11.63
2023-01-26T19:34:49.010Z,13.83
2023-01-26T19:37:16.302Z,12.87
2023-01-26T19:39:43.573Z,9.30
2023-01-26T19:42:10.923Z,10.20
2023-01-26T19:44:38.235Z,9.43
2023-01-26T19:47:05.534Z,10.60
2023-01-26T19:49:32.816Z,10.93
2023-01-26T19:52:00.143Z,10.80
2023-01-26T19:54:27.942Z,11.70
2023-01-26T19:56:55.250Z,11.63
2023-01-26T19:59:22.587Z,11.20
2023-01-26T20:01:49.937Z,11.93
2023-01-26T20:04:17.202Z,13.13
2023-01-26T20:06:48.272Z,10.20
2023-01-26T20:09:15.543Z,10.63
2023-01-26T20:11:42.894Z,12.60
2023-01-26T20:14:10.899Z,9.07
2023-01-26T20:16:38.610Z,11.07
2023-01-26T20:19:06.055Z,10.53
2023-01-26T20:21:33.764Z,12.20
2023-01-26T20:24:05.690Z,11.07
2023-01-26T20:26:34.696Z,10.60
2023-01-26T20:29:02.068Z,9.13
2023-01-26T20:31:29.731Z,10.50
2023-01-26T20:33:58.358Z,12.30
2023-01-26T20:36:27.822Z,13.13
2023-01-26T20:38:55.123Z,13.57
2023-01-26T20:41:25.800Z,16.13
2023-01-26T20:44:01.835Z,19.10
2023-01-26T20:46:32.759Z,10.57
2023-01-26T20:49:00.448Z,12.57
2023-01-26T20:51:30.982Z,13.60
2023-01-26T20:53:58.627Z,11.63
2023-01-26T20:56:26.339Z,14.73
2023-01-26T20:58:54.815Z,12.10
2023-01-26T21:01:23.836Z,19.73
2023-01-26T21:03:51.552Z,16.07
2023-01-26T21:06:20.402Z,13.60
2023-01-26T21:08:48.839Z,15.97
2023-01-26T21:11:17.124Z,15.77
2023-01-26T21:13:45.299Z,18.07
2023-01-26T21:16:15.523Z,13.50
2023-01-26T21:18:43.162Z,17.40
2023-01-26T21:21:12.835Z,14.63
2023-01-26T21:23:40.201Z,18.17
2023-01-26T21:26:11.213Z,12.73
2023-01-26T21:28:39.028Z,12.43
2023-01-26T21:31:13.806Z,11.80
2023-01-26T21:33:43.572Z,12.97
2023-01-26T21:36:13.485Z,10.43
2023-01-26T21:38:43.210Z,11.90
2023-01-26T21:41:32.535Z,14.40
2023-01-26T21:44:02.025Z,12.87
2023-01-26T21:46:30.453Z,12.57
2023-01-26T21:48:58.147Z,11.60
2023-01-26T21:51:45.226Z,13.73
2023-01-26T21:54:13.619Z,13.83
2023-01-26T21:56:41.099Z,14.50
2023-01-26T21:59:11.477Z,16.53
2023-01-26T22:01:48.122Z,13.40
2023-01-26T22:04:17.927Z,13.23
2023-01-26T22:06:45.275Z,17.43
2023-01-26T22:09:15.035Z,18.97
2023-01-26T22:11:42.787Z,15.40
2023-01-26T22:14:21.508Z,12.27
2023-01-26T22:16:49.069Z,13.80
2023-01-26T22:19:16.480Z,11.23
2023-01-26T22:21:44.174Z,14.53
2023-01-26T22:24:13.573Z,12.80
2023-01-26T22:26:41.221Z,12.00
2023-01-26T22:29:10.413Z,14.07
2023-01-26T22:31:37.847Z,12.60
2023-01-26T22:34:05.440Z,11.90
2023-01-26T22:36:33.426Z,12.40
2023-01-26T22:39:00.786Z,12.23
2023-01-26T22:41:30.101Z,13.10
2023-01-26T22:43:59.481Z,12.90
2023-01-26T22:46:28.760Z,11.47
2023-01-26T22:48:57.413Z,11.97
2023-01-26T22:51:29.947Z,11.27
2023-01-26T22:53:58.499Z,10.90
2023-01-26T22:56:27.260Z,12.20
2023-01-26T22:58:59.355Z,9.67
2023-01-26T23:01:30.011Z,9.93
2023-01-26T23:03:58.579Z,11.07
2023-01-26T23:06:25.970Z,9.33
2023-01-26T23:08:54.211Z,11.20
2023-01-26T23:11:24.660Z,19.97
2023-01-26T23:13:53.557Z,12.87
2023-01-26T23:16:23.498Z,12.70
2023-01-26T23:18:55.844Z,11.97
2023-01-26T23:21:24.144Z,10.50
2023-01-26T23:23:51.742Z,12.57
2023-01-26T23:26:20.519Z,13.17
2023-01-26T23:28:48.295Z,11.77
2023-01-26T23:31:17.265Z,12.43
2023-01-26T23:33:45.311Z,11.63
2023-01-26T23:36:14.035Z,15.13
2023-01-26T23:38:41.708Z,11.60
2023-01-26T23:41:09.009Z,13.30
2023-01-26T23:43:36.709Z,9.37
2023-01-26T23:46:05.717Z,11.27
2023-01-26T23:48:33.095Z,11.17
2023-01-26T23:51:03.952Z,12.93
2023-01-26T23:53:31.921Z,11.73
2023-01-26T23:56:03.064Z,13.00
2023-01-26T23:58:30.391Z,14.20
